sensor_id;sensor_type;location;lat;lon;timestamp;P1;durP1;ratioP1;P2;durP2;ratioP2
15082;SDS011;7640;53.116;6.878;2022-08-21T00:00:43;19.00;;;14.67;;
15082;SDS011;7640;53.116;6.878;2022-08-21T00:03:12;20.27;;;13.67;;
15082;SDS011;7640;53.116;6.878;2022-08-21T00:05:41;16.53;;;10.90;;
15082;SDS011;7640;53.116;6.878;2022-08-21T00:08:12;13.27;;;10.70;;
15082;SDS011;7640;53.116;6.878;2022-08-21T00:10:41;14.10;;;10.13;;
15082;SDS011;7640;53.116;6.878;2022-08-21T00:13:10;12.33;;;9.67;;
15082;SDS011;7640;53.116;6.878;2022-08-21T00:15:44;11.07;;;9.03;;
15082;SDS011;7640;53.116;6.878;2022-08-21T00:18:14;15.53;;;9.17;;
15082;SDS011;7640;53.116;6.878;2022-08-21T00:20:44;12.57;;;8.70;;
15082;SDS011;7640;53.116;6.878;2022-08-21T00:23:13;12.27;;;8.30;;
15082;SDS011;7640;53.116;6.878;2022-08-21T00:25:41;13.30;;;8.47;;
15082;SDS011;7640;53.116;6.878;2022-08-21T00:28:10;12.00;;;8.80;;
15082;SDS011;7640;53.116;6.878;2022-08-21T00:30:40;11.53;;;8.33;;
15082;SDS011;7640;53.116;6.878;2022-08-21T00:33:10;13.93;;;9.07;;
15082;SDS011;7640;53.116;6.878;2022-08-21T00:35:40;12.20;;;8.53;;
15082;SDS011;7640;53.116;6.878;2022-08-21T00:38:10;12.10;;;8.87;;
15082;SDS011;7640;53.116;6.878;2022-08-21T00:40:41;11.70;;;8.57;;
15082;SDS011;7640;53.116;6.878;2022-08-21T00:43:15;13.17;;;8.97;;
15082;SDS011;7640;53.116;6.878;2022-08-21T00:45:47;14.90;;;8.93;;
15082;SDS011;7640;53.116;6.878;2022-08-21T00:48:16;11.03;;;8.07;;
15082;SDS011;7640;53.116;6.878;2022-08-21T00:50:46;12.40;;;8.10;;
15082;SDS011;7640;53.116;6.878;2022-08-21T00:53:20;12.13;;;8.47;;
15082;SDS011;7640;53.116;6.878;2022-08-21T00:55:50;11.17;;;8.00;;
15082;SDS011;7640;53.116;6.878;2022-08-21T00:58:23;10.87;;;8.93;;
15082;SDS011;7640;53.116;6.878;2022-08-21T01:00:54;15.80;;;8.87;;
15082;SDS011;7640;53.116;6.878;2022-08-21T01:03:24;11.57;;;8.17;;
15082;SDS011;7640;53.116;6.878;2022-08-21T01:05:53;10.73;;;8.13;;
15082;SDS011;7640;53.116;6.878;2022-08-21T01:08:22;10.47;;;7.83;;
15082;SDS011;7640;53.116;6.878;2022-08-21T01:10:52;10.17;;;7.37;;
15082;SDS011;7640;53.116;6.878;2022-08-21T01:13:22;10.93;;;7.17;;
15082;SDS011;7640;53.116;6.878;2022-08-21T01:15:52;10.57;;;7.53;;
15082;SDS011;7640;53.116;6.878;2022-08-21T01:18:25;10.87;;;7.13;;
15082;SDS011;7640;53.116;6.878;2022-08-21T01:21:03;9.47;;;6.50;;
15082;SDS011;7640;53.116;6.878;2022-08-21T01:23:39;10.33;;;6.73;;
15082;SDS011;7640;53.116;6.878;2022-08-21T01:26:12;12.50;;;7.83;;
15082;SDS011;7640;53.116;6.878;2022-08-21T01:28:44;8.90;;;6.30;;
15082;SDS011;7640;53.116;6.878;2022-08-21T01:31:17;9.93;;;6.83;;
15082;SDS011;7640;53.116;6.878;2022-08-21T01:33:51;11.23;;;5.90;;
15082;SDS011;7640;53.116;6.878;2022-08-21T01:36:22;8.87;;;6.20;;
15082;SDS011;7640;53.116;6.878;2022-08-21T01:38:51;10.13;;;6.53;;
15082;SDS011;7640;53.116;6.878;2022-08-21T01:41:19;9.03;;;5.93;;
15082;SDS011;7640;53.116;6.878;2022-08-21T01:43:48;6.33;;;5.57;;
15082;SDS011;7640;53.116;6.878;2022-08-21T01:46:16;11.77;;;5.97;;
15082;SDS011;7640;53.116;6.878;2022-08-21T01:48:44;9.33;;;5.43;;
15082;SDS011;7640;53.116;6.878;2022-08-21T01:51:13;8.97;;;5.27;;
15082;SDS011;7640;53.116;6.878;2022-08-21T01:53:42;7.93;;;5.33;;
15082;SDS011;7640;53.116;6.878;2022-08-21T01:56:11;10.97;;;5.43;;
15082;SDS011;7640;53.116;6.878;2022-08-21T01:58:42;9.93;;;5.40;;
15082;SDS011;7640;53.116;6.878;2022-08-21T02:01:13;9.50;;;5.10;;
15082;SDS011;7640;53.116;6.878;2022-08-21T02:03:42;9.33;;;5.20;;
15082;SDS011;7640;53.116;6.878;2022-08-21T02:06:12;7.33;;;5.50;;
15082;SDS011;7640;53.116;6.878;2022-08-21T02:08:45;9.07;;;4.97;;
15082;SDS011;7640;53.116;6.878;2022-08-21T02:11:16;10.20;;;5.17;;
15082;SDS011;7640;53.116;6.878;2022-08-21T02:13:44;6.57;;;4.97;;
15082;SDS011;7640;53.116;6.878;2022-08-21T02:16:13;8.30;;;5.27;;
15082;SDS011;7640;53.116;6.878;2022-08-21T02:18:44;8.97;;;5.47;;
15082;SDS011;7640;53.116;6.878;2022-08-21T02:21:13;11.80;;;6.07;;
15082;SDS011;7640;53.116;6.878;2022-08-21T02:23:41;12.30;;;6.03;;
15082;SDS011;7640;53.116;6.878;2022-08-21T02:26:11;9.40;;;6.07;;
15082;SDS011;7640;53.116;6.878;2022-08-21T02:28:40;8.07;;;5.73;;
15082;SDS011;7640;53.116;6.878;2022-08-21T02:31:08;8.97;;;6.23;;
15082;SDS011;7640;53.116;6.878;2022-08-21T02:33:38;8.90;;;5.57;;
15082;SDS011;7640;53.116;6.878;2022-08-21T02:36:07;10.67;;;6.00;;
15082;SDS011;7640;53.116;6.878;2022-08-21T02:38:37;10.40;;;5.97;;
15082;SDS011;7640;53.116;6.878;2022-08-21T02:41:07;8.30;;;6.03;;
15082;SDS011;7640;53.116;6.878;2022-08-21T02:43:40;9.80;;;6.57;;
15082;SDS011;7640;53.116;6.878;2022-08-21T02:46:09;12.40;;;6.90;;
15082;SDS011;7640;53.116;6.878;2022-08-21T02:48:40;10.47;;;6.67;;
15082;SDS011;7640;53.116;6.878;2022-08-21T02:51:10;11.27;;;6.57;;
15082;SDS011;7640;53.116;6.878;2022-08-21T02:53:41;8.83;;;7.07;;
15082;SDS011;7640;53.116;6.878;2022-08-21T02:56:11;11.67;;;7.00;;
15082;SDS011;7640;53.116;6.878;2022-08-21T02:58:44;11.50;;;7.40;;
15082;SDS011;7640;53.116;6.878;2022-08-21T03:01:15;12.20;;;7.03;;
15082;SDS011;7640;53.116;6.878;2022-08-21T03:03:44;11.03;;;7.47;;
15082;SDS011;7640;53.116;6.878;2022-08-21T03:06:16;14.57;;;7.70;;
15082;SDS011;7640;53.116;6.878;2022-08-21T03:08:48;9.70;;;6.90;;
15082;SDS011;7640;53.116;6.878;2022-08-21T03:11:18;12.50;;;7.63;;
15082;SDS011;7640;53.116;6.878;2022-08-21T03:13:46;9.33;;;7.10;;
15082;SDS011;7640;53.116;6.878;2022-08-21T03:16:15;13.00;;;8.03;;
15082;SDS011;7640;53.116;6.878;2022-08-21T03:18:44;8.73;;;6.80;;
15082;SDS011;7640;53.116;6.878;2022-08-21T03:21:13;10.67;;;7.60;;
15082;SDS011;7640;53.116;6.878;2022-08-21T03:23:42;12.90;;;7.90;;
15082;SDS011;7640;53.116;6.878;2022-08-21T03:26:10;14.70;;;7.70;;
15082;SDS011;7640;53.116;6.878;2022-08-21T03:28:40;11.90;;;7.00;;
15082;SDS011;7640;53.116;6.878;2022-08-21T03:31:08;13.27;;;7.43;;
15082;SDS011;7640;53.116;6.878;2022-08-21T03:33:36;10.83;;;7.60;;
15082;SDS011;7640;53.116;6.878;2022-08-21T03:36:05;11.87;;;7.90;;
15082;SDS011;7640;53.116;6.878;2022-08-21T03:38:35;11.33;;;8.47;;
15082;SDS011;7640;53.116;6.878;2022-08-21T03:41:05;13.93;;;8.03;;
15082;SDS011;7640;53.116;6.878;2022-08-21T03:43:34;11.23;;;7.97;;
15082;SDS011;7640;53.116;6.878;2022-08-21T03:46:06;12.80;;;7.63;;
15082;SDS011;7640;53.116;6.878;2022-08-21T03:48:35;15.93;;;8.37;;
15082;SDS011;7640;53.116;6.878;2022-08-21T03:51:05;12.93;;;8.67;;
15082;SDS011;7640;53.116;6.878;2022-08-21T03:53:34;12.67;;;8.50;;
15082;SDS011;7640;53.116;6.878;2022-08-21T03:56:02;10.70;;;8.70;;
15082;SDS011;7640;53.116;6.878;2022-08-21T03:58:31;11.23;;;7.77;;
15082;SDS011;7640;53.116;6.878;2022-08-21T04:01:00;11.67;;;8.53;;
15082;SDS011;7640;53.116;6.878;2022-08-21T04:03:32;13.90;;;8.73;;
15082;SDS011;7640;53.116;6.878;2022-08-21T04:06:03;12.47;;;8.17;;
15082;SDS011;7640;53.116;6.878;2022-08-21T04:08:32;11.77;;;8.13;;
15082;SDS011;7640;53.116;6.878;2022-08-21T04:11:01;11.67;;;8.40;;
15082;SDS011;7640;53.116;6.878;2022-08-21T04:13:29;13.53;;;7.70;;
15082;SDS011;7640;53.116;6.878;2022-08-21T04:15:57;9.53;;;7.80;;
15082;SDS011;7640;53.116;6.878;2022-08-21T04:18:26;12.40;;;8.23;;
15082;SDS011;7640;53.116;6.878;2022-08-21T04:20:56;11.80;;;7.90;;
15082;SDS011;7640;53.116;6.878;2022-08-21T04:23:30;12.63;;;7.70;;
15082;SDS011;7640;53.116;6.878;2022-08-21T04:25:58;11.43;;;8.17;;
15082;SDS011;7640;53.116;6.878;2022-08-21T04:28:26;9.10;;;7.40;;
15082;SDS011;7640;53.116;6.878;2022-08-21T04:30:56;11.57;;;7.60;;
15082;SDS011;7640;53.116;6.878;2022-08-21T04:33:25;11.23;;;7.57;;
15082;SDS011;7640;53.116;6.878;2022-08-21T04:35:53;10.00;;;7.93;;
15082;SDS011;7640;53.116;6.878;2022-08-21T04:38:23;12.00;;;7.90;;
15082;SDS011;7640;53.116;6.878;2022-08-21T04:41:01;10.70;;;7.50;;
15082;SDS011;7640;53.116;6.878;2022-08-21T04:43:30;13.13;;;8.03;;
15082;SDS011;7640;53.116;6.878;2022-08-21T04:45:59;14.47;;;8.67;;
15082;SDS011;7640;53.116;6.878;2022-08-21T04:48:28;15.17;;;8.70;;
15082;SDS011;7640;53.116;6.878;2022-08-21T04:50:59;15.00;;;8.83;;
15082;SDS011;7640;53.116;6.878;2022-08-21T04:53:33;13.10;;;7.57;;
15082;SDS011;7640;53.116;6.878;2022-08-21T04:56:07;11.13;;;8.33;;
15082;SDS011;7640;53.116;6.878;2022-08-21T04:58:38;10.07;;;8.00;;
15082;SDS011;7640;53.116;6.878;2022-08-21T05:01:09;12.03;;;8.67;;
15082;SDS011;7640;53.116;6.878;2022-08-21T05:03:46;12.27;;;8.60;;
15082;SDS011;7640;53.116;6.878;2022-08-21T05:06:18;12.03;;;8.17;;
15082;SDS011;7640;53.116;6.878;2022-08-21T05:08:48;13.37;;;8.77;;
15082;SDS011;7640;53.116;6.878;2022-08-21T05:11:27;12.27;;;8.63;;
15082;SDS011;7640;53.116;6.878;2022-08-21T05:13:56;15.00;;;8.67;;
15082;SDS011;7640;53.116;6.878;2022-08-21T05:16:25;11.37;;;8.00;;
15082;SDS011;7640;53.116;6.878;2022-08-21T05:19:03;12.13;;;8.20;;
15082;SDS011;7640;53.116;6.878;2022-08-21T05:21:33;12.93;;;8.83;;
15082;SDS011;7640;53.116;6.878;2022-08-21T05:24:01;15.10;;;8.30;;
15082;SDS011;7640;53.116;6.878;2022-08-21T05:26:30;10.40;;;8.47;;
15082;SDS011;7640;53.116;6.878;2022-08-21T05:29:10;9.80;;;8.27;;
15082;SDS011;7640;53.116;6.878;2022-08-21T05:31:38;13.07;;;8.30;;
15082;SDS011;7640;53.116;6.878;2022-08-21T05:34:06;13.23;;;7.90;;
15082;SDS011;7640;53.116;6.878;2022-08-21T05:36:36;9.50;;;7.50;;
15082;SDS011;7640;53.116;6.878;2022-08-21T05:39:04;14.40;;;8.40;;
15082;SDS011;7640;53.116;6.878;2022-08-21T05:41:33;11.67;;;7.77;;
15082;SDS011;7640;53.116;6.878;2022-08-21T05:44:01;12.67;;;8.10;;
15082;SDS011;7640;53.116;6.878;2022-08-21T05:46:35;11.93;;;8.07;;
15082;SDS011;7640;53.116;6.878;2022-08-21T05:49:03;11.87;;;8.73;;
15082;SDS011;7640;53.116;6.878;2022-08-21T05:51:31;11.47;;;7.77;;
15082;SDS011;7640;53.116;6.878;2022-08-21T05:54:01;9.60;;;6.80;;
15082;SDS011;7640;53.116;6.878;2022-08-21T05:56:30;8.50;;;7.37;;
15082;SDS011;7640;53.116;6.878;2022-08-21T05:58:58;14.87;;;7.73;;
15082;SDS011;7640;53.116;6.878;2022-08-21T06:01:27;10.87;;;6.90;;
15082;SDS011;7640;53.116;6.878;2022-08-21T06:03:57;11.43;;;6.70;;
15082;SDS011;7640;53.116;6.878;2022-08-21T06:06:26;11.50;;;7.33;;
15082;SDS011;7640;53.116;6.878;2022-08-21T06:08:54;10.90;;;7.20;;
15082;SDS011;7640;53.116;6.878;2022-08-21T06:11:24;11.00;;;6.47;;
15082;SDS011;7640;53.116;6.878;2022-08-21T06:13:57;9.77;;;6.50;;
15082;SDS011;7640;53.116;6.878;2022-08-21T06:16:26;9.43;;;6.73;;
15082;SDS011;7640;53.116;6.878;2022-08-21T06:18:55;13.03;;;7.00;;
15082;SDS011;7640;53.116;6.878;2022-08-21T06:21:28;8.37;;;6.27;;
15082;SDS011;7640;53.116;6.878;2022-08-21T06:23:56;9.07;;;6.27;;
15082;SDS011;7640;53.116;6.878;2022-08-21T06:26:26;8.93;;;6.57;;
15082;SDS011;7640;53.116;6.878;2022-08-21T06:28:55;10.30;;;6.40;;
15082;SDS011;7640;53.116;6.878;2022-08-21T06:31:24;9.97;;;6.80;;
15082;SDS011;7640;53.116;6.878;2022-08-21T06:33:54;13.57;;;6.27;;
15082;SDS011;7640;53.116;6.878;2022-08-21T06:36:23;8.63;;;6.10;;
15082;SDS011;7640;53.116;6.878;2022-08-21T06:38:51;12.83;;;6.33;;
15082;SDS011;7640;53.116;6.878;2022-08-21T06:41:22;10.07;;;5.63;;
15082;SDS011;7640;53.116;6.878;2022-08-21T06:43:53;12.57;;;7.37;;
15082;SDS011;7640;53.116;6.878;2022-08-21T06:46:23;10.03;;;6.17;;
15082;SDS011;7640;53.116;6.878;2022-08-21T06:48:53;9.03;;;6.20;;
15082;SDS011;7640;53.116;6.878;2022-08-21T06:51:22;11.57;;;6.00;;
15082;SDS011;7640;53.116;6.878;2022-08-21T06:53:52;25.23;;;13.33;;
15082;SDS011;7640;53.116;6.878;2022-08-21T06:56:20;11.77;;;6.43;;
15082;SDS011;7640;53.116;6.878;2022-08-21T06:58:48;8.67;;;5.20;;
15082;SDS011;7640;53.116;6.878;2022-08-21T07:01:18;8.67;;;5.40;;
15082;SDS011;7640;53.116;6.878;2022-08-21T07:03:50;9.30;;;5.60;;
15082;SDS011;7640;53.116;6.878;2022-08-21T07:06:19;9.33;;;4.90;;
15082;SDS011;7640;53.116;6.878;2022-08-21T07:08:47;11.37;;;5.47;;
15082;SDS011;7640;53.116;6.878;2022-08-21T07:11:17;9.13;;;4.80;;
15082;SDS011;7640;53.116;6.878;2022-08-21T07:13:47;9.60;;;4.60;;
15082;SDS011;7640;53.116;6.878;2022-08-21T07:16:20;7.73;;;4.00;;
15082;SDS011;7640;53.116;6.878;2022-08-21T07:18:49;8.07;;;3.80;;
15082;SDS011;7640;53.116;6.878;2022-08-21T07:21:17;9.90;;;3.67;;
15082;SDS011;7640;53.116;6.878;2022-08-21T07:23:51;9.57;;;3.87;;
15082;SDS011;7640;53.116;6.878;2022-08-21T07:26:20;7.17;;;3.60;;
15082;SDS011;7640;53.116;6.878;2022-08-21T07:28:50;6.70;;;3.60;;
15082;SDS011;7640;53.116;6.878;2022-08-21T07:31:21;9.63;;;3.23;;
15082;SDS011;7640;53.116;6.878;2022-08-21T07:33:51;7.00;;;3.33;;
15082;SDS011;7640;53.116;6.878;2022-08-21T07:36:21;8.67;;;3.30;;
15082;SDS011;7640;53.116;6.878;2022-08-21T07:38:50;6.13;;;3.50;;
15082;SDS011;7640;53.116;6.878;2022-08-21T07:41:19;5.93;;;3.53;;
15082;SDS011;7640;53.116;6.878;2022-08-21T07:43:50;7.50;;;3.07;;
15082;SDS011;7640;53.116;6.878;2022-08-21T07:46:20;6.87;;;3.27;;
15082;SDS011;7640;53.116;6.878;2022-08-21T07:48:48;7.77;;;3.93;;
15082;SDS011;7640;53.116;6.878;2022-08-21T07:51:19;9.17;;;3.70;;
15082;SDS011;7640;53.116;6.878;2022-08-21T07:53:52;7.97;;;3.60;;
15082;SDS011;7640;53.116;6.878;2022-08-21T07:56:22;6.23;;;3.50;;
15082;SDS011;7640;53.116;6.878;2022-08-21T07:58:50;9.83;;;3.80;;
15082;SDS011;7640;53.116;6.878;2022-08-21T08:01:20;8.37;;;4.17;;
15082;SDS011;7640;53.116;6.878;2022-08-21T08:03:49;9.20;;;3.90;;
15082;SDS011;7640;53.116;6.878;2022-08-21T08:06:18;10.43;;;3.77;;
15082;SDS011;7640;53.116;6.878;2022-08-21T08:08:46;8.77;;;3.73;;
15082;SDS011;7640;53.116;6.878;2022-08-21T08:11:15;10.60;;;3.60;;
15082;SDS011;7640;53.116;6.878;2022-08-21T08:13:44;10.73;;;3.80;;
15082;SDS011;7640;53.116;6.878;2022-08-21T08:16:14;10.50;;;3.87;;
15082;SDS011;7640;53.116;6.878;2022-08-21T08:18:44;10.73;;;3.60;;
15082;SDS011;7640;53.116;6.878;2022-08-21T08:21:13;7.70;;;3.33;;
15082;SDS011;7640;53.116;6.878;2022-08-21T08:23:42;8.10;;;3.50;;
15082;SDS011;7640;53.116;6.878;2022-08-21T08:26:11;6.17;;;3.03;;
15082;SDS011;7640;53.116;6.878;2022-08-21T08:28:39;8.33;;;3.43;;
15082;SDS011;7640;53.116;6.878;2022-08-21T08:31:07;10.50;;;3.73;;
15082;SDS011;7640;53.116;6.878;2022-08-21T08:33:36;7.57;;;3.80;;
15082;SDS011;7640;53.116;6.878;2022-08-21T08:36:11;7.70;;;3.33;;
15082;SDS011;7640;53.116;6.878;2022-08-21T08:38:41;9.37;;;3.70;;
15082;SDS011;7640;53.116;6.878;2022-08-21T08:41:12;7.00;;;3.17;;
15082;SDS011;7640;53.116;6.878;2022-08-21T08:43:44;6.43;;;2.83;;
15082;SDS011;7640;53.116;6.878;2022-08-21T08:46:19;9.00;;;3.50;;
15082;SDS011;7640;53.116;6.878;2022-08-21T08:48:56;8.03;;;3.23;;
15082;SDS011;7640;53.116;6.878;2022-08-21T08:51:33;7.97;;;3.30;;
15082;SDS011;7640;53.116;6.878;2022-08-21T08:54:11;7.43;;;3.50;;
15082;SDS011;7640;53.116;6.878;2022-08-21T08:56:45;7.70;;;3.40;;
15082;SDS011;7640;53.116;6.878;2022-08-21T08:59:15;7.77;;;2.53;;
15082;SDS011;7640;53.116;6.878;2022-08-21T09:01:46;6.03;;;2.80;;
15082;SDS011;7640;53.116;6.878;2022-08-21T09:04:16;11.03;;;3.60;;
15082;SDS011;7640;53.116;6.878;2022-08-21T09:06:55;5.67;;;2.70;;
15082;SDS011;7640;53.116;6.878;2022-08-21T09:09:37;5.93;;;2.50;;
15082;SDS011;7640;53.116;6.878;2022-08-21T09:12:24;7.23;;;3.03;;
15082;SDS011;7640;53.116;6.878;2022-08-21T09:15:03;5.07;;;2.90;;
15082;SDS011;7640;53.116;6.878;2022-08-21T09:17:46;5.70;;;2.60;;
15082;SDS011;7640;53.116;6.878;2022-08-21T09:20:36;8.20;;;3.30;;
15082;SDS011;7640;53.116;6.878;2022-08-21T09:23:13;8.57;;;2.30;;
15082;SDS011;7640;53.116;6.878;2022-08-21T09:25:54;6.78;;;2.45;;
15082;SDS011;7640;53.116;6.878;2022-08-21T09:28:30;6.00;;;2.60;;
15082;SDS011;7640;53.116;6.878;2022-08-21T09:31:01;7.78;;;2.92;;
15082;SDS011;7640;53.116;6.878;2022-08-21T09:33:33;9.25;;;2.65;;
15082;SDS011;7640;53.116;6.878;2022-08-21T09:36:02;6.70;;;2.60;;
15082;SDS011;7640;53.116;6.878;2022-08-21T09:38:33;4.68;;;2.00;;
15082;SDS011;7640;53.116;6.878;2022-08-21T09:41:04;7.13;;;1.98;;
15082;SDS011;7640;53.116;6.878;2022-08-21T09:43:36;7.13;;;2.38;;
15082;SDS011;7640;53.116;6.878;2022-08-21T09:46:07;5.15;;;2.15;;
15082;SDS011;7640;53.116;6.878;2022-08-21T09:48:41;5.88;;;1.90;;
15082;SDS011;7640;53.116;6.878;2022-08-21T09:51:14;4.63;;;2.22;;
15082;SDS011;7640;53.116;6.878;2022-08-21T09:53:48;5.10;;;2.47;;
15082;SDS011;7640;53.116;6.878;2022-08-21T09:56:27;10.23;;;2.50;;
15082;SDS011;7640;53.116;6.878;2022-08-21T09:59:17;7.03;;;1.98;;
15082;SDS011;7640;53.116;6.878;2022-08-21T10:01:53;4.18;;;1.83;;
15082;SDS011;7640;53.116;6.878;2022-08-21T10:04:23;5.82;;;2.20;;
15082;SDS011;7640;53.116;6.878;2022-08-21T10:07:05;5.57;;;1.98;;
15082;SDS011;7640;53.116;6.878;2022-08-21T10:09:36;5.38;;;2.10;;
15082;SDS011;7640;53.116;6.878;2022-08-21T10:12:08;5.78;;;2.55;;
15082;SDS011;7640;53.116;6.878;2022-08-21T10:14:47;7.18;;;2.20;;
15082;SDS011;7640;53.116;6.878;2022-08-21T10:17:23;4.82;;;1.65;;
15082;SDS011;7640;53.116;6.878;2022-08-21T10:20:00;5.68;;;1.83;;
15082;SDS011;7640;53.116;6.878;2022-08-21T10:22:37;5.40;;;2.17;;
15082;SDS011;7640;53.116;6.878;2022-08-21T10:25:18;6.00;;;2.10;;
15082;SDS011;7640;53.116;6.878;2022-08-21T10:27:55;4.13;;;2.00;;
15082;SDS011;7640;53.116;6.878;2022-08-21T10:30:49;4.82;;;1.67;;
15082;SDS011;7640;53.116;6.878;2022-08-21T10:33:27;5.35;;;1.80;;
15082;SDS011;7640;53.116;6.878;2022-08-21T10:36:05;3.70;;;1.52;;
15082;SDS011;7640;53.116;6.878;2022-08-21T10:38:54;3.65;;;1.65;;
15082;SDS011;7640;53.116;6.878;2022-08-21T10:41:57;3.40;;;1.80;;
15082;SDS011;7640;53.116;6.878;2022-08-21T10:44:53;3.78;;;1.60;;
15082;SDS011;7640;53.116;6.878;2022-08-21T10:47:40;4.72;;;1.98;;
15082;SDS011;7640;53.116;6.878;2022-08-21T10:50:25;3.67;;;1.50;;
15082;SDS011;7640;53.116;6.878;2022-08-21T10:53:05;5.45;;;1.90;;
15082;SDS011;7640;53.116;6.878;2022-08-21T10:55:59;4.07;;;1.70;;
15082;SDS011;7640;53.116;6.878;2022-08-21T10:58:36;5.15;;;1.92;;
15082;SDS011;7640;53.116;6.878;2022-08-21T11:01:11;4.72;;;1.70;;
15082;SDS011;7640;53.116;6.878;2022-08-21T11:03:46;5.00;;;1.70;;
15082;SDS011;7640;53.116;6.878;2022-08-21T11:06:20;6.10;;;1.92;;
15082;SDS011;7640;53.116;6.878;2022-08-21T11:08:53;4.45;;;1.80;;
15082;SDS011;7640;53.116;6.878;2022-08-21T11:11:29;3.42;;;1.42;;
15082;SDS011;7640;53.116;6.878;2022-08-21T11:16:58;4.25;;;1.55;;
15082;SDS011;7640;53.116;6.878;2022-08-21T11:19:39;4.30;;;1.63;;
15082;SDS011;7640;53.116;6.878;2022-08-21T11:22:33;4.05;;;1.70;;
15082;SDS011;7640;53.116;6.878;2022-08-21T11:25:21;4.70;;;1.83;;
15082;SDS011;7640;53.116;6.878;2022-08-21T11:28:02;5.00;;;1.77;;
15082;SDS011;7640;53.116;6.878;2022-08-21T11:30:44;6.13;;;1.58;;
15082;SDS011;7640;53.116;6.878;2022-08-21T11:33:26;5.30;;;1.98;;
15082;SDS011;7640;53.116;6.878;2022-08-21T11:36:11;5.35;;;1.73;;
15082;SDS011;7640;53.116;6.878;2022-08-21T11:38:51;5.03;;;1.75;;
15082;SDS011;7640;53.116;6.878;2022-08-21T11:41:28;6.75;;;1.98;;
15082;SDS011;7640;53.116;6.878;2022-08-21T11:44:02;4.97;;;1.90;;
15082;SDS011;7640;53.116;6.878;2022-08-21T11:46:42;4.80;;;1.75;;
15082;SDS011;7640;53.116;6.878;2022-08-21T11:49:20;5.65;;;1.95;;
15082;SDS011;7640;53.116;6.878;2022-08-21T11:52:07;4.95;;;1.90;;
15082;SDS011;7640;53.116;6.878;2022-08-21T11:54:42;5.25;;;1.80;;
15082;SDS011;7640;53.116;6.878;2022-08-21T11:57:15;4.78;;;1.90;;
15082;SDS011;7640;53.116;6.878;2022-08-21T11:59:50;3.88;;;1.67;;
15082;SDS011;7640;53.116;6.878;2022-08-21T12:02:30;4.25;;;1.83;;
15082;SDS011;7640;53.116;6.878;2022-08-21T12:05:04;5.55;;;2.50;;
15082;SDS011;7640;53.116;6.878;2022-08-21T12:07:37;4.18;;;1.92;;
15082;SDS011;7640;53.116;6.878;2022-08-21T12:10:08;4.93;;;2.10;;
15082;SDS011;7640;53.116;6.878;2022-08-21T12:12:40;4.93;;;2.15;;
15082;SDS011;7640;53.116;6.878;2022-08-21T12:15:16;5.63;;;2.25;;
15082;SDS011;7640;53.116;6.878;2022-08-21T12:17:59;5.78;;;2.50;;
15082;SDS011;7640;53.116;6.878;2022-08-21T12:20:39;7.50;;;2.53;;
15082;SDS011;7640;53.116;6.878;2022-08-21T12:23:24;4.78;;;2.67;;
15082;SDS011;7640;53.116;6.878;2022-08-21T12:26:09;7.75;;;3.20;;
15082;SDS011;7640;53.116;6.878;2022-08-21T12:31:49;4.95;;;3.03;;
15082;SDS011;7640;53.116;6.878;2022-08-21T12:34:24;4.65;;;2.70;;
15082;SDS011;7640;53.116;6.878;2022-08-21T12:37:05;4.95;;;2.10;;
15082;SDS011;7640;53.116;6.878;2022-08-21T12:39:44;4.82;;;1.98;;
15082;SDS011;7640;53.116;6.878;2022-08-21T12:42:15;4.97;;;2.17;;
15082;SDS011;7640;53.116;6.878;2022-08-21T12:44:47;4.60;;;1.98;;
15082;SDS011;7640;53.116;6.878;2022-08-21T12:47:23;3.92;;;2.10;;
15082;SDS011;7640;53.116;6.878;2022-08-21T12:50:00;3.38;;;1.90;;
15082;SDS011;7640;53.116;6.878;2022-08-21T12:52:34;6.20;;;2.80;;
15082;SDS011;7640;53.116;6.878;2022-08-21T12:55:10;4.35;;;2.17;;
15082;SDS011;7640;53.116;6.878;2022-08-21T12:57:40;6.18;;;2.60;;
15082;SDS011;7640;53.116;6.878;2022-08-21T13:00:11;5.53;;;2.45;;
15082;SDS011;7640;53.116;6.878;2022-08-21T13:02:48;2.13;;;1.60;;
15082;SDS011;7640;53.116;6.878;2022-08-21T13:05:23;4.07;;;1.80;;
15082;SDS011;7640;53.116;6.878;2022-08-21T13:08:03;5.80;;;2.28;;
15082;SDS011;7640;53.116;6.878;2022-08-21T13:10:34;5.88;;;1.88;;
15082;SDS011;7640;53.116;6.878;2022-08-21T13:13:03;4.60;;;2.00;;
15082;SDS011;7640;53.116;6.878;2022-08-21T13:15:39;3.95;;;2.20;;
15082;SDS011;7640;53.116;6.878;2022-08-21T13:18:19;6.10;;;2.05;;
15082;SDS011;7640;53.116;6.878;2022-08-21T13:20:51;4.47;;;2.45;;
15082;SDS011;7640;53.116;6.878;2022-08-21T13:23:31;5.45;;;2.20;;
15082;SDS011;7640;53.116;6.878;2022-08-21T13:26:15;3.95;;;1.90;;
15082;SDS011;7640;53.116;6.878;2022-08-21T13:28:46;4.45;;;1.85;;
15082;SDS011;7640;53.116;6.878;2022-08-21T13:31:17;5.15;;;1.90;;
15082;SDS011;7640;53.116;6.878;2022-08-21T13:33:49;4.22;;;2.05;;
15082;SDS011;7640;53.116;6.878;2022-08-21T13:36:20;4.10;;;2.05;;
15082;SDS011;7640;53.116;6.878;2022-08-21T13:38:55;3.63;;;2.15;;
15082;SDS011;7640;53.116;6.878;2022-08-21T13:41:24;8.30;;;2.35;;
15082;SDS011;7640;53.116;6.878;2022-08-21T13:43:56;5.63;;;2.20;;
15082;SDS011;7640;53.116;6.878;2022-08-21T13:46:29;4.72;;;2.10;;
15082;SDS011;7640;53.116;6.878;2022-08-21T13:49:03;5.47;;;2.35;;
15082;SDS011;7640;53.116;6.878;2022-08-21T13:51:35;6.07;;;2.35;;
15082;SDS011;7640;53.116;6.878;2022-08-21T13:54:13;6.18;;;2.20;;
15082;SDS011;7640;53.116;6.878;2022-08-21T13:56:45;4.55;;;2.30;;
15082;SDS011;7640;53.116;6.878;2022-08-21T13:59:23;4.55;;;2.17;;
15082;SDS011;7640;53.116;6.878;2022-08-21T14:01:55;4.57;;;2.33;;
15082;SDS011;7640;53.116;6.878;2022-08-21T14:04:31;7.45;;;2.72;;
15082;SDS011;7640;53.116;6.878;2022-08-21T14:07:13;7.28;;;2.40;;
15082;SDS011;7640;53.116;6.878;2022-08-21T14:09:45;5.10;;;2.40;;
15082;SDS011;7640;53.116;6.878;2022-08-21T14:12:15;4.97;;;2.17;;
15082;SDS011;7640;53.116;6.878;2022-08-21T14:14:50;3.60;;;2.17;;
15082;SDS011;7640;53.116;6.878;2022-08-21T14:17:26;6.00;;;2.15;;
15082;SDS011;7640;53.116;6.878;2022-08-21T14:19:59;4.55;;;2.55;;
15082;SDS011;7640;53.116;6.878;2022-08-21T14:22:36;4.63;;;2.05;;
15082;SDS011;7640;53.116;6.878;2022-08-21T14:25:10;6.93;;;1.92;;
15082;SDS011;7640;53.116;6.878;2022-08-21T14:27:42;4.05;;;2.00;;
15082;SDS011;7640;53.116;6.878;2022-08-21T14:30:17;5.03;;;2.42;;
15082;SDS011;7640;53.116;6.878;2022-08-21T14:32:49;5.13;;;1.77;;
15082;SDS011;7640;53.116;6.878;2022-08-21T14:35:19;4.82;;;1.98;;
15082;SDS011;7640;53.116;6.878;2022-08-21T14:37:51;4.22;;;2.15;;
15082;SDS011;7640;53.116;6.878;2022-08-21T14:40:21;4.00;;;1.90;;
15082;SDS011;7640;53.116;6.878;2022-08-21T14:42:51;5.63;;;2.10;;
15082;SDS011;7640;53.116;6.878;2022-08-21T14:45:26;5.80;;;1.80;;
15082;SDS011;7640;53.116;6.878;2022-08-21T14:47:57;3.35;;;1.73;;
15082;SDS011;7640;53.116;6.878;2022-08-21T14:50:25;6.15;;;2.45;;
15082;SDS011;7640;53.116;6.878;2022-08-21T14:52:55;5.72;;;2.20;;
15082;SDS011;7640;53.116;6.878;2022-08-21T14:55:23;3.85;;;2.05;;
15082;SDS011;7640;53.116;6.878;2022-08-21T14:57:54;4.97;;;2.42;;
15082;SDS011;7640;53.116;6.878;2022-08-21T15:00:24;5.68;;;2.47;;
15082;SDS011;7640;53.116;6.878;2022-08-21T15:03:01;5.00;;;2.10;;
15082;SDS011;7640;53.116;6.878;2022-08-21T15:05:30;4.25;;;1.88;;
15082;SDS011;7640;53.116;6.878;2022-08-21T15:08:00;4.93;;;1.83;;
15082;SDS011;7640;53.116;6.878;2022-08-21T15:10:30;4.72;;;1.40;;
15082;SDS011;7640;53.116;6.878;2022-08-21T15:13:17;3.20;;;1.75;;
15082;SDS011;7640;53.116;6.878;2022-08-21T15:15:47;5.22;;;2.10;;
15082;SDS011;7640;53.116;6.878;2022-08-21T15:18:18;5.82;;;2.63;;
15082;SDS011;7640;53.116;6.878;2022-08-21T15:20:47;5.32;;;1.98;;
15082;SDS011;7640;53.116;6.878;2022-08-21T15:23:17;3.95;;;1.50;;
15082;SDS011;7640;53.116;6.878;2022-08-21T15:25:46;5.35;;;1.90;;
15082;SDS011;7640;53.116;6.878;2022-08-21T15:28:16;3.60;;;2.03;;
15082;SDS011;7640;53.116;6.878;2022-08-21T15:30:49;8.07;;;5.15;;
15082;SDS011;7640;53.116;6.878;2022-08-21T15:33:18;5.80;;;2.13;;